createdAt,value
2023-01-19T00:01:26.759Z,-1.42
2023-01-19T00:03:53.473Z,-1.41
2023-01-19T00:06:20.488Z,-1.45
2023-01-19T00:08:49.250Z,-1.41
2023-01-19T00:11:19.157Z,-1.38
2023-01-19T00:13:52.137Z,-1.51
2023-01-19T00:16:22.496Z,-1.38
2023-01-19T00:18:51.813Z,-1.28
2023-01-19T00:21:18.934Z,-1.28
2023-01-19T00:23:48.704Z,-1.24
2023-01-19T00:26:16.542Z,-1.18
2023-01-19T00:28:44.072Z,-1.17
2023-01-19T00:31:11.672Z,-1.20
2023-01-19T00:33:38.269Z,-1.23
2023-01-19T00:36:05.739Z,-1.19
2023-01-19T00:38:32.499Z,-1.19
2023-01-19T00:40:59.123Z,-1.17
2023-01-19T00:43:25.955Z,-1.14
2023-01-19T00:45:52.930Z,-1.18
2023-01-19T00:48:19.511Z,-1.17
2023-01-19T00:50:47.794Z,-1.27
2023-01-19T00:53:14.493Z,-1.34
2023-01-19T00:55:41.242Z,-1.47
2023-01-19T00:58:07.811Z,-1.43
2023-01-19T01:00:34.476Z,-1.43
2023-01-19T01:03:01.698Z,-1.44
2023-01-19T01:05:46.962Z,-1.33
2023-01-19T01:08:13.706Z,-1.34
2023-01-19T01:10:40.218Z,-1.40
2023-01-19T01:13:20.288Z,-1.41
2023-01-19T01:15:52.025Z,-1.45
2023-01-19T01:18:18.836Z,-1.43
2023-01-19T01:20:45.500Z,-1.40
2023-01-19T01:23:23.080Z,-1.43
2023-01-19T01:25:51.024Z,-1.41
2023-01-19T01:28:17.820Z,-1.36
2023-01-19T01:30:44.501Z,-1.33
2023-01-19T01:33:14.130Z,-1.33
2023-01-19T01:35:40.787Z,-1.27
2023-01-19T01:38:07.948Z,-1.23
2023-01-19T01:40:34.843Z,-1.25
2023-01-19T01:43:03.223Z,-1.17
2023-01-19T01:45:34.378Z,-1.12
2023-01-19T01:48:14.855Z,-1.13
2023-01-19T01:51:09.655Z,-1.17
2023-01-19T01:53:37.930Z,-1.21
2023-01-19T01:56:09.257Z,-1.20
2023-01-19T01:58:37.840Z,-1.18
2023-01-19T02:01:24.609Z,-1.19
2023-01-19T02:03:52.693Z,-1.27
2023-01-19T02:06:20.305Z,-1.16
2023-01-19T02:09:12.932Z,-1.10
2023-01-19T02:11:59.564Z,-1.16
2023-01-19T02:14:26.320Z,-1.23
2023-01-19T02:16:53.133Z,-1.14
2023-01-19T02:19:31.277Z,-1.15
2023-01-19T02:22:18.712Z,-1.20
2023-01-19T02:24:45.285Z,-1.20
2023-01-19T02:27:12.642Z,-1.19
2023-01-19T02:29:39.955Z,-1.17
2023-01-19T02:32:08.846Z,-1.14
2023-01-19T02:34:35.686Z,-1.16
2023-01-19T02:37:13.726Z,-1.20
2023-01-19T02:39:45.645Z,-1.16
2023-01-19T02:42:21.797Z,-1.15
2023-01-19T02:44:52.371Z,-1.16
2023-01-19T02:47:19.973Z,-1.15
2023-01-19T02:49:57.961Z,-1.11
2023-01-19T02:52:25.868Z,-1.13
2023-01-19T02:55:17.076Z,-1.16
2023-01-19T02:57:59.819Z,-1.17
2023-01-19T03:00:33.224Z,-1.23
2023-01-19T03:03:24.145Z,-1.27
2023-01-19T03:06:09.048Z,-1.24
2023-01-19T03:08:55.091Z,-1.28
2023-01-19T03:11:27.706Z,-1.32
2023-01-19T03:14:18.766Z,-1.28
2023-01-19T03:16:50.728Z,-1.31
2023-01-19T03:19:37.038Z,-1.34
2023-01-19T03:22:17.503Z,-1.28
2023-01-19T03:24:46.590Z,-1.21
2023-01-19T03:27:51.342Z,-1.16
2023-01-19T03:30:24.513Z,-1.16
2023-01-19T03:33:00.565Z,-1.17
2023-01-19T03:35:31.932Z,-1.28
2023-01-19T03:38:03.301Z,-1.26
2023-01-19T03:40:32.685Z,-1.32
2023-01-19T03:43:01.296Z,-1.33
2023-01-19T03:45:28.495Z,-1.38
2023-01-19T03:47:55.422Z,-1.40
2023-01-19T03:50:47.389Z,-1.39
2023-01-19T03:53:16.482Z,-1.36
2023-01-19T03:55:46.621Z,-1.30
2023-01-19T03:58:18.342Z,-1.27
2023-01-19T04:00:44.939Z,-1.27
2023-01-19T04:03:15.276Z,-1.21
2023-01-19T04:05:42.533Z,-1.21
2023-01-19T04:08:10.025Z,-1.17
2023-01-19T04:10:37.261Z,-1.19
2023-01-19T04:13:04.794Z,-1.17
2023-01-19T04:15:32.334Z,-1.18
2023-01-19T04:18:00.713Z,-1.14
2023-01-19T04:20:28.485Z,-1.09
2023-01-19T04:22:59.192Z,-1.11
2023-01-19T04:25:26.556Z,-1.06
2023-01-19T04:27:53.900Z,-1.01
2023-01-19T04:30:20.809Z,-1.02
2023-01-19T04:32:47.698Z,-1.10
2023-01-19T04:35:14.404Z,-1.14
2023-01-19T04:37:40.995Z,-1.12
2023-01-19T04:40:08.737Z,-1.13
2023-01-19T04:42:35.556Z,-1.12
2023-01-19T04:45:02.300Z,-1.11
2023-01-19T04:47:28.818Z,-1.10
2023-01-19T04:49:55.668Z,-1.13
2023-01-19T04:52:22.184Z,-1.11
2023-01-19T04:54:48.990Z,-1.21
2023-01-19T04:57:15.752Z,-1.29
2023-01-19T04:59:42.543Z,-1.30
2023-01-19T05:02:09.578Z,-1.24
2023-01-19T05:04:36.180Z,-1.28
2023-01-19T05:07:02.720Z,-1.23
2023-01-19T05:09:29.567Z,-1.19
2023-01-19T05:11:56.148Z,-1.17
2023-01-19T05:14:22.778Z,-1.18
2023-01-19T05:16:49.456Z,-1.15
2023-01-19T05:19:25.109Z,-1.10
2023-01-19T05:21:56.145Z,-1.08
2023-01-19T05:24:22.916Z,-1.09
2023-01-19T05:26:49.503Z,-1.03
2023-01-19T05:29:16.199Z,-0.99
2023-01-19T05:31:42.898Z,-0.96
2023-01-19T05:34:11.801Z,-0.95
2023-01-19T05:36:38.927Z,-0.97
2023-01-19T05:39:05.693Z,-0.93
2023-01-19T05:41:32.964Z,-0.98
2023-01-19T05:43:59.551Z,-1.05
2023-01-19T05:46:26.167Z,-1.05
2023-01-19T05:48:52.942Z,-1.10
2023-01-19T05:51:19.528Z,-1.11
2023-01-19T05:53:46.320Z,-1.12
2023-01-19T05:56:13.082Z,-1.13
2023-01-19T05:58:39.815Z,-1.14
2023-01-19T06:01:08.693Z,-1.32
2023-01-19T06:03:37.065Z,-1.12
2023-01-19T06:06:04.656Z,-1.13
2023-01-19T06:08:31.461Z,-1.15
2023-01-19T06:10:58.124Z,-1.18
2023-01-19T06:13:24.829Z,-1.22
2023-01-19T06:15:58.038Z,-1.21
2023-01-19T06:18:25.138Z,-1.26
2023-01-19T06:20:58.553Z,-1.25
2023-01-19T06:23:26.452Z,-1.20
2023-01-19T06:25:53.506Z,-1.20
2023-01-19T06:28:20.217Z,-1.24
2023-01-19T06:30:50.943Z,-1.32
2023-01-19T06:33:18.530Z,-1.27
2023-01-19T06:35:46.478Z,-1.31
2023-01-19T06:38:15.720Z,-1.16
2023-01-19T06:40:42.266Z,-1.17
2023-01-19T06:43:09.441Z,-1.21
2023-01-19T06:45:36.320Z,-1.19
2023-01-19T06:48:03.770Z,-1.18
2023-01-19T06:50:30.337Z,-1.25
2023-01-19T06:52:57.100Z,-1.25
2023-01-19T06:55:23.885Z,-1.22
2023-01-19T06:57:59.070Z,-1.09
2023-01-19T07:00:26.241Z,-1.09
2023-01-19T07:02:53.478Z,-0.96
2023-01-19T07:05:22.158Z,-0.93
2023-01-19T07:07:53.784Z,-0.95
2023-01-19T07:10:21.000Z,-0.89
2023-01-19T07:12:48.536Z,-0.85
2023-01-19T07:15:17.100Z,-0.82
2023-01-19T07:17:44.431Z,-0.75
2023-01-19T07:20:14.362Z,-0.71
2023-01-19T07:22:43.568Z,-0.67
2023-01-19T07:25:10.256Z,-0.72
2023-01-19T07:27:36.811Z,-0.68
2023-01-19T07:30:18.439Z,-0.74
2023-01-19T07:32:44.954Z,-0.77
2023-01-19T07:35:11.553Z,-0.77
2023-01-19T07:37:38.365Z,-0.85
2023-01-19T07:40:05.594Z,-0.71
2023-01-19T07:42:32.288Z,-0.69
2023-01-19T07:44:58.835Z,-0.64
2023-01-19T07:47:25.372Z,-0.58
2023-01-19T07:49:52.832Z,-0.56
2023-01-19T07:52:19.393Z,-0.57
2023-01-19T07:54:51.048Z,-0.58
2023-01-19T07:57:17.639Z,-0.50
2023-01-19T07:59:44.188Z,-0.46
2023-01-19T08:02:11.357Z,-0.43
2023-01-19T08:04:38.298Z,-0.49
2023-01-19T08:07:04.905Z,-0.55
2023-01-19T08:09:31.529Z,-0.48
2023-01-19T08:11:58.083Z,-0.55
2023-01-19T08:14:25.028Z,-0.62
2023-01-19T08:16:51.626Z,-1.00
2023-01-19T08:19:21.861Z,-0.56
2023-01-19T08:21:48.550Z,-0.57
2023-01-19T08:24:21.558Z,-0.42
2023-01-19T08:26:49.013Z,-0.39
2023-01-19T08:29:15.690Z,-0.32
2023-01-19T08:31:42.858Z,-0.32
2023-01-19T08:34:09.510Z,-0.30
2023-01-19T08:36:36.397Z,-0.25
2023-01-19T08:39:03.169Z,-0.23
2023-01-19T08:41:29.738Z,-0.17
2023-01-19T08:43:56.417Z,-0.12
2023-01-19T08:46:23.006Z,-0.09
2023-01-19T08:48:52.587Z,-0.14
2023-01-19T08:51:19.685Z,-0.29
2023-01-19T08:53:46.270Z,-0.13
2023-01-19T08:56:13.907Z,-0.12
2023-01-19T08:58:42.351Z,-0.12
2023-01-19T09:01:12.344Z,-0.12
2023-01-19T09:03:39.153Z,-0.24
2023-01-19T09:06:07.212Z,-0.21
2023-01-19T09:08:33.834Z,-0.20
2023-01-19T09:11:00.591Z,-0.22
2023-01-19T09:13:27.326Z,-0.19
2023-01-19T09:15:53.951Z,-0.20
2023-01-19T09:18:22.592Z,-0.16
2023-01-19T09:20:50.435Z,-0.16
2023-01-19T09:23:21.463Z,-0.13
2023-01-19T09:25:48.428Z,-0.07
2023-01-19T09:28:17.680Z,-0.04
2023-01-19T09:30:45.148Z,-0.04
2023-01-19T09:33:14.810Z,-0.03
2023-01-19T09:35:42.608Z,0.02
2023-01-19T09:38:10.709Z,0.13
2023-01-19T09:40:47.458Z,0.16
2023-01-19T09:43:29.110Z,0.12
2023-01-19T09:45:59.134Z,0.09
2023-01-19T09:48:38.673Z,0.05
2023-01-19T09:51:10.837Z,0.09
2023-01-19T09:54:07.897Z,0.07
2023-01-19T09:56:34.753Z,-0.03
2023-01-19T09:59:01.713Z,-0.11
2023-01-19T10:01:47.264Z,0.05
2023-01-19T10:04:32.224Z,0.05
2023-01-19T10:07:37.657Z,0.10
2023-01-19T10:10:26.675Z,0.09
2023-01-19T10:13:11.841Z,0.07
2023-01-19T10:16:05.773Z,0.02
2023-01-19T10:18:48.123Z,-0.10
2023-01-19T10:21:20.005Z,-0.03
2023-01-19T10:23:55.952Z,-0.03
2023-01-19T10:26:33.906Z,-0.06
2023-01-19T10:29:22.622Z,0.04
2023-01-19T10:31:52.977Z,0.00
2023-01-19T10:34:23.010Z,0.03
2023-01-19T10:36:59.085Z,-0.11
2023-01-19T10:39:25.815Z,0.10
2023-01-19T10:41:53.874Z,0.08
2023-01-19T10:44:28.206Z,0.18
2023-01-19T10:47:00.575Z,0.29
2023-01-19T10:49:28.573Z,0.28
2023-01-19T10:51:57.504Z,0.35
2023-01-19T10:54:26.347Z,0.38
2023-01-19T10:56:59.355Z,0.31
2023-01-19T10:59:38.778Z,0.26
2023-01-19T11:02:21.229Z,0.29
2023-01-19T11:04:50.191Z,0.19
2023-01-19T11:07:26.028Z,0.17
2023-01-19T11:10:21.027Z,0.13
2023-01-19T11:13:01.502Z,0.04
2023-01-19T11:15:32.625Z,-0.02
2023-01-19T11:17:59.549Z,-0.04
2023-01-19T11:21:09.979Z,-0.06
2023-01-19T11:23:50.964Z,-0.27
2023-01-19T11:26:34.820Z,-0.38
2023-01-19T11:29:04.026Z,-0.45
2023-01-19T11:31:34.056Z,-0.48
2023-01-19T11:34:06.046Z,-0.55
2023-01-19T11:36:35.788Z,-0.58
2023-01-19T11:39:24.483Z,-0.57
2023-01-19T11:41:57.258Z,-0.53
2023-01-19T11:44:34.266Z,-0.49
2023-01-19T11:47:05.277Z,-0.43
2023-01-19T11:49:44.306Z,-0.34
2023-01-19T11:52:26.233Z,-0.34
2023-01-19T11:54:56.876Z,-0.37
2023-01-19T11:57:23.594Z,-0.36
2023-01-19T11:59:52.888Z,-0.34
2023-01-19T12:02:30.935Z,-0.30
2023-01-19T12:05:05.367Z,-0.29
2023-01-19T12:07:36.095Z,-0.28
2023-01-19T12:10:32.140Z,-0.20
2023-01-19T12:12:59.343Z,-0.20
2023-01-19T12:15:45.994Z,-0.13
2023-01-19T12:18:23.006Z,-0.36
2023-01-19T12:20:52.686Z,-0.13
2023-01-19T12:23:30.526Z,-0.33
2023-01-19T12:26:23.181Z,-0.12
2023-01-19T12:28:52.217Z,-0.28
2023-01-19T12:31:23.115Z,-0.32
2023-01-19T12:33:50.683Z,-0.35
2023-01-19T12:36:17.462Z,-0.40
2023-01-19T12:38:54.490Z,-0.52
2023-01-19T12:41:35.707Z,-0.39
2023-01-19T12:44:11.946Z,-0.40
2023-01-19T12:47:04.280Z,-0.43
2023-01-19T12:49:33.222Z,-0.42
2023-01-19T12:52:34.591Z,-0.43
2023-01-19T12:55:20.776Z,-0.48
2023-01-19T12:57:47.315Z,-0.47
2023-01-19T13:00:26.225Z,-0.43
2023-01-19T13:03:14.513Z,-0.40
2023-01-19T13:05:41.056Z,-0.35
2023-01-19T13:08:14.590Z,-0.36
2023-01-19T13:10:59.614Z,-0.39
2023-01-19T13:13:30.916Z,-0.46
2023-01-19T13:16:30.015Z,-0.56
2023-01-19T13:19:06.017Z,-0.62
2023-01-19T13:21:36.601Z,-0.62
2023-01-19T13:24:04.818Z,-0.59
2023-01-19T13:26:34.892Z,-0.55
2023-01-19T13:29:07.294Z,-0.52
2023-01-19T13:31:39.884Z,-0.68
2023-01-19T13:34:27.936Z,-0.51
2023-01-19T13:36:56.537Z,-0.49
2023-01-19T13:39:39.688Z,-0.50
2023-01-19T13:42:16.838Z,-0.41
2023-01-19T13:44:52.417Z,-0.48
2023-01-19T13:47:25.720Z,-0.55
2023-01-19T13:49:56.930Z,-0.42
2023-01-19T13:52:33.810Z,-0.41
2023-01-19T13:55:14.131Z,-0.36
2023-01-19T13:57:48.111Z,-0.41
2023-01-19T14:00:20.420Z,-0.37
2023-01-19T14:03:24.453Z,-0.35
2023-01-19T14:05:53.119Z,-0.42
2023-01-19T14:08:21.497Z,-0.41
2023-01-19T14:11:02.211Z,-0.47
2023-01-19T14:13:31.438Z,-0.55
2023-01-19T14:16:06.057Z,-0.50
2023-01-19T14:18:34.271Z,-0.48
2023-01-19T14:21:12.803Z,-0.48
2023-01-19T14:23:49.773Z,-0.60
2023-01-19T14:27:09.405Z,-0.64
2023-01-19T14:29:40.139Z,-0.61
2023-01-19T14:32:09.715Z,-0.56
2023-01-19T14:34:42.705Z,-0.53
2023-01-19T14:37:15.696Z,-0.55
2023-01-19T14:39:50.844Z,-0.72
2023-01-19T14:42:23.826Z,-0.75
2023-01-19T14:45:16.281Z,-0.64
2023-01-19T14:47:46.144Z,-0.73
2023-01-19T14:50:22.378Z,-0.79
2023-01-19T14:52:56.577Z,-0.81
2023-01-19T14:55:28.855Z,-0.83
2023-01-19T14:57:55.410Z,-1.01
2023-01-19T15:00:22.615Z,-0.82
2023-01-19T15:02:49.593Z,-0.79
2023-01-19T15:05:16.724Z,-0.85
2023-01-19T15:07:45.615Z,-0.83
2023-01-19T15:10:21.037Z,-0.75
2023-01-19T15:12:49.345Z,-0.73
2023-01-19T15:15:22.993Z,-0.83
2023-01-19T15:17:51.179Z,-0.73
2023-01-19T15:20:20.888Z,-0.78
2023-01-19T15:22:48.279Z,-0.86
2023-01-19T15:25:17.495Z,-0.75
2023-01-19T15:27:45.197Z,-0.86
2023-01-19T15:30:21.544Z,-0.80
2023-01-19T15:32:57.356Z,-0.75
2023-01-19T15:35:26.568Z,-0.72
2023-01-19T15:37:53.427Z,-0.77
2023-01-19T15:40:23.353Z,-0.65
2023-01-19T15:42:50.482Z,-0.82
2023-01-19T15:45:39.456Z,-0.77
2023-01-19T15:48:11.720Z,-0.79
2023-01-19T15:50:43.438Z,-0.78
2023-01-19T15:53:18.460Z,-0.79
2023-01-19T15:55:48.670Z,-0.80
2023-01-19T15:58:20.943Z,-0.83
2023-01-19T16:00:58.469Z,-0.84
2023-01-19T16:03:26.267Z,-0.87
2023-01-19T16:05:52.961Z,-0.90
2023-01-19T16:08:22.350Z,-0.88
2023-01-19T16:10:48.904Z,-0.93
2023-01-19T16:13:15.492Z,-0.93
2023-01-19T16:15:45.474Z,-0.99
2023-01-19T16:18:12.182Z,-0.94
2023-01-19T16:20:39.167Z,-0.90
2023-01-19T16:23:21.091Z,-0.88
2023-01-19T16:26:08.006Z,-0.88
2023-01-19T16:28:35.915Z,-0.98
2023-01-19T16:31:03.594Z,-0.99
2023-01-19T16:33:30.874Z,-1.10
2023-01-19T16:35:57.409Z,-1.03
2023-01-19T16:38:24.291Z,-0.94
2023-01-19T16:40:50.930Z,-0.98
2023-01-19T16:43:18.671Z,-0.93
2023-01-19T16:46:00.510Z,-0.93
2023-01-19T16:48:27.542Z,-0.86
2023-01-19T16:51:04.963Z,-0.85
2023-01-19T16:53:34.852Z,-0.87
2023-01-19T16:56:06.715Z,-0.75
2023-01-19T16:58:33.795Z,-0.84
2023-01-19T17:01:00.411Z,-0.91
2023-01-19T17:03:27.229Z,-0.96
2023-01-19T17:05:53.903Z,-0.90
2023-01-19T17:08:20.785Z,-0.97
2023-01-19T17:10:47.996Z,-0.90
2023-01-19T17:13:14.664Z,-0.94
2023-01-19T17:15:41.612Z,-1.09
2023-01-19T17:18:10.253Z,-0.92
2023-01-19T17:20:37.102Z,-0.99
2023-01-19T17:23:03.712Z,-0.84
2023-01-19T17:25:30.618Z,-0.84
2023-01-19T17:28:00.502Z,-0.85
2023-01-19T17:30:27.397Z,-0.85
2023-01-19T17:32:54.057Z,-0.90
2023-01-19T17:35:20.692Z,-0.80
2023-01-19T17:37:47.365Z,-0.82
2023-01-19T17:40:14.476Z,-0.82
2023-01-19T17:42:41.991Z,-0.84
2023-01-19T17:45:10.879Z,-0.99
2023-01-19T17:47:38.747Z,-0.92
2023-01-19T17:50:06.608Z,-0.99
2023-01-19T17:52:33.663Z,-1.00
2023-01-19T17:55:00.612Z,-1.13
2023-01-19T17:57:28.160Z,-0.96
2023-01-19T17:59:54.825Z,-0.92
2023-01-19T18:02:24.593Z,-1.12
2023-01-19T18:04:54.533Z,-0.93
2023-01-19T18:07:21.113Z,-0.96
2023-01-19T18:09:47.986Z,-0.91
2023-01-19T18:12:16.042Z,-1.00
2023-01-19T18:14:43.211Z,-0.96
2023-01-19T18:17:10.243Z,-0.93
2023-01-19T18:19:36.941Z,-0.90
2023-01-19T18:22:03.741Z,-0.92
2023-01-19T18:24:30.617Z,-0.89
2023-01-19T18:26:57.534Z,-0.84
2023-01-19T18:29:24.492Z,-0.93
2023-01-19T18:31:51.219Z,-0.88
2023-01-19T18:34:17.885Z,-0.83
2023-01-19T18:36:44.902Z,-0.80
2023-01-19T18:39:11.794Z,-0.93
2023-01-19T18:41:44.723Z,-0.93
2023-01-19T18:44:12.248Z,-0.89
2023-01-19T18:46:39.391Z,-0.83
2023-01-19T18:49:06.687Z,-0.92
2023-01-19T18:51:33.266Z,-1.05
2023-01-19T18:54:00.380Z,-0.93
2023-01-19T18:56:27.652Z,-0.92
2023-01-19T18:58:54.805Z,-0.89
2023-01-19T19:01:32.643Z,-0.81
2023-01-19T19:04:11.810Z,-0.79
2023-01-19T19:06:38.547Z,-0.83
2023-01-19T19:09:05.468Z,-0.82
2023-01-19T19:11:32.268Z,-0.77
2023-01-19T19:14:01.310Z,-0.81
2023-01-19T19:16:29.789Z,-0.74
2023-01-19T19:18:56.855Z,-0.71
2023-01-19T19:21:25.415Z,-0.74
2023-01-19T19:23:57.540Z,-0.89
2023-01-19T19:26:25.866Z,-0.73
2023-01-19T19:28:52.795Z,-0.79
2023-01-19T19:31:22.176Z,-0.75
2023-01-19T19:33:51.109Z,-0.79
2023-01-19T19:36:20.207Z,-0.76
2023-01-19T19:38:47.882Z,-0.87
2023-01-19T19:41:23.166Z,-0.87
2023-01-19T19:43:50.481Z,-0.86
2023-01-19T19:46:22.039Z,-0.82
2023-01-19T19:48:49.105Z,-0.83
2023-01-19T19:51:22.718Z,-0.85
2023-01-19T19:53:51.954Z,-0.84
2023-01-19T19:56:21.538Z,-0.83
2023-01-19T19:58:48.972Z,-0.84
2023-01-19T20:01:18.090Z,-0.84
2023-01-19T20:03:45.253Z,-0.90
2023-01-19T20:06:14.769Z,-0.91
2023-01-19T20:08:41.678Z,-0.88
2023-01-19T20:11:11.813Z,-0.83
2023-01-19T20:13:40.633Z,-0.82
2023-01-19T20:16:10.693Z,-0.81
2023-01-19T20:18:39.348Z,-0.81
2023-01-19T20:21:18.651Z,-0.86
2023-01-19T20:23:46.816Z,-0.88
2023-01-19T20:26:16.327Z,-0.85
2023-01-19T20:28:43.789Z,-0.83
2023-01-19T20:31:18.204Z,-0.87
2023-01-19T20:33:46.074Z,-0.93
2023-01-19T20:36:13.386Z,-0.88
2023-01-19T20:38:40.423Z,-0.86
2023-01-19T20:41:09.238Z,-0.81
2023-01-19T20:43:36.255Z,-0.89
2023-01-19T20:46:03.205Z,-0.80
2023-01-19T20:48:31.329Z,-0.78
2023-01-19T20:51:06.246Z,-0.85
2023-01-19T20:53:34.270Z,-0.86
2023-01-19T20:56:19.095Z,-0.81
2023-01-19T20:58:45.763Z,-0.84
2023-01-19T21:01:22.025Z,-0.88
2023-01-19T21:03:49.702Z,-0.98
2023-01-19T21:06:20.126Z,-0.99
2023-01-19T21:08:47.419Z,-1.02
2023-01-19T21:11:14.347Z,-1.05
2023-01-19T21:13:41.339Z,-1.12
2023-01-19T21:16:08.399Z,-1.28
2023-01-19T21:18:35.612Z,-1.15
2023-01-19T21:21:02.297Z,-1.11
2023-01-19T21:23:29.977Z,-1.11
2023-01-19T21:25:59.141Z,-1.13
2023-01-19T21:28:27.237Z,-1.14
2023-01-19T21:30:56.737Z,-1.28
2023-01-19T21:33:24.143Z,-1.28
2023-01-19T21:35:56.989Z,-1.33
2023-01-19T21:38:27.045Z,-1.30
2023-01-19T21:40:55.164Z,-1.27
2023-01-19T21:43:23.796Z,-1.19
2023-01-19T21:45:50.674Z,-1.19
2023-01-19T21:48:18.479Z,-1.24
2023-01-19T21:50:45.212Z,-1.29
2023-01-19T21:53:12.012Z,-1.28
2023-01-19T21:55:44.060Z,-1.34
2023-01-19T21:58:10.695Z,-1.34
2023-01-19T22:00:37.545Z,-1.43
2023-01-19T22:03:04.870Z,-1.41
2023-01-19T22:05:36.775Z,-1.39
2023-01-19T22:08:04.356Z,-1.52
2023-01-19T22:10:31.055Z,-1.36
2023-01-19T22:12:57.647Z,-1.34
2023-01-19T22:15:24.272Z,-1.36
2023-01-19T22:17:50.836Z,-1.38
2023-01-19T22:20:17.677Z,-1.42
2023-01-19T22:22:44.283Z,-1.49
2023-01-19T22:25:11.236Z,-1.37
2023-01-19T22:27:38.880Z,-1.35
2023-01-19T22:30:06.219Z,-1.39
2023-01-19T22:32:32.802Z,-1.29
2023-01-19T22:34:59.481Z,-1.34
2023-01-19T22:37:26.099Z,-1.26
2023-01-19T22:39:53.657Z,-1.34
2023-01-19T22:42:20.258Z,-1.34
2023-01-19T22:44:47.053Z,-1.38
2023-01-19T22:47:13.623Z,-1.33
2023-01-19T22:49:40.753Z,-1.32
2023-01-19T22:52:07.699Z,-1.41
2023-01-19T22:54:34.337Z,-1.33
2023-01-19T22:57:02.027Z,-1.60
2023-01-19T22:59:28.899Z,-1.29
2023-01-19T23:01:55.614Z,-1.58
2023-01-19T23:04:22.234Z,-1.39
2023-01-19T23:06:51.545Z,-1.36
2023-01-19T23:09:19.068Z,-1.31
2023-01-19T23:11:51.358Z,-1.33
2023-01-19T23:14:20.791Z,-1.37
2023-01-19T23:16:48.056Z,-1.38
2023-01-19T23:19:17.128Z,-1.37
2023-01-19T23:21:44.772Z,-1.41
2023-01-19T23:24:11.696Z,-1.45
2023-01-19T23:26:38.698Z,-1.39
2023-01-19T23:29:11.758Z,-1.40
2023-01-19T23:31:40.022Z,-1.51
2023-01-19T23:34:09.643Z,-1.34
2023-01-19T23:36:37.711Z,-1.32
2023-01-19T23:39:12.753Z,-1.28
2023-01-19T23:41:39.474Z,-1.27
2023-01-19T23:44:06.135Z,-1.52
2023-01-19T23:46:32.834Z,-1.28
2023-01-19T23:48:59.498Z,-1.34
2023-01-19T23:51:28.917Z,-1.33
2023-01-19T23:53:56.662Z,-1.36
2023-01-19T23:56:29.531Z,-1.40
2023-01-19T23:59:07.795Z,-1.40
